sensor_id;sensor_type;location;lat;lon;timestamp;P1;durP1;ratioP1;P2;durP2;ratioP2
77938;SDS011;67136;47.546;21.630;2024-03-08T00:02:49;27.70;;;13.75;;
77938;SDS011;67136;47.546;21.630;2024-03-08T00:05:53;32.53;;;13.38;;
77938;SDS011;67136;47.546;21.630;2024-03-08T00:08:57;29.87;;;13.50;;
77938;SDS011;67136;47.546;21.630;2024-03-08T00:12:00;36.08;;;13.98;;
77938;SDS011;67136;47.546;21.630;2024-03-08T00:15:03;32.33;;;13.32;;
77938;SDS011;67136;47.546;21.630;2024-03-08T00:18:06;31.17;;;13.65;;
77938;SDS011;67136;47.546;21.630;2024-03-08T00:21:09;34.47;;;14.65;;
77938;SDS011;67136;47.546;21.630;2024-03-08T00:24:12;36.77;;;14.43;;
77938;SDS011;67136;47.546;21.630;2024-03-08T00:27:15;35.00;;;14.43;;
77938;SDS011;67136;47.546;21.630;2024-03-08T00:30:18;34.65;;;15.73;;
77938;SDS011;67136;47.546;21.630;2024-03-08T00:33:20;33.10;;;13.73;;
77938;SDS011;67136;47.546;21.630;2024-03-08T00:36:23;33.63;;;14.30;;
77938;SDS011;67136;47.546;21.630;2024-03-08T00:39:27;34.37;;;14.43;;
77938;SDS011;67136;47.546;21.630;2024-03-08T00:42:32;34.55;;;15.10;;
77938;SDS011;67136;47.546;21.630;2024-03-08T00:45:35;36.25;;;15.80;;
77938;SDS011;67136;47.546;21.630;2024-03-08T00:48:39;33.22;;;14.23;;
77938;SDS011;67136;47.546;21.630;2024-03-08T00:51:45;37.22;;;13.60;;
77938;SDS011;67136;47.546;21.630;2024-03-08T00:54:48;34.30;;;13.57;;
77938;SDS011;67136;47.546;21.630;2024-03-08T00:57:51;39.80;;;15.02;;
77938;SDS011;67136;47.546;21.630;2024-03-08T01:00:56;35.58;;;14.80;;
77938;SDS011;67136;47.546;21.630;2024-03-08T01:04:00;35.63;;;14.40;;
77938;SDS011;67136;47.546;21.630;2024-03-08T01:07:03;39.17;;;14.50;;
77938;SDS011;67136;47.546;21.630;2024-03-08T01:10:05;37.33;;;15.00;;
77938;SDS011;67136;47.546;21.630;2024-03-08T01:13:14;36.78;;;14.27;;
77938;SDS011;67136;47.546;21.630;2024-03-08T01:16:19;36.33;;;14.85;;
77938;SDS011;67136;47.546;21.630;2024-03-08T01:19:23;33.08;;;14.25;;
77938;SDS011;67136;47.546;21.630;2024-03-08T01:22:29;36.10;;;14.98;;
77938;SDS011;67136;47.546;21.630;2024-03-08T01:25:32;36.83;;;14.13;;
77938;SDS011;67136;47.546;21.630;2024-03-08T01:28:37;39.25;;;14.80;;
77938;SDS011;67136;47.546;21.630;2024-03-08T01:31:40;35.70;;;13.68;;
77938;SDS011;67136;47.546;21.630;2024-03-08T01:34:43;35.92;;;15.32;;
77938;SDS011;67136;47.546;21.630;2024-03-08T01:37:47;34.60;;;14.52;;
77938;SDS011;67136;47.546;21.630;2024-03-08T01:40:51;38.40;;;14.90;;
77938;SDS011;67136;47.546;21.630;2024-03-08T01:43:57;34.65;;;15.02;;
77938;SDS011;67136;47.546;21.630;2024-03-08T01:47:01;37.38;;;15.07;;
77938;SDS011;67136;47.546;21.630;2024-03-08T01:50:04;33.25;;;12.85;;
77938;SDS011;67136;47.546;21.630;2024-03-08T01:53:08;36.35;;;14.10;;
77938;SDS011;67136;47.546;21.630;2024-03-08T01:56:17;38.03;;;13.63;;
77938;SDS011;67136;47.546;21.630;2024-03-08T01:59:20;35.53;;;14.27;;
77938;SDS011;67136;47.546;21.630;2024-03-08T02:02:23;32.75;;;13.77;;
77938;SDS011;67136;47.546;21.630;2024-03-08T02:05:25;38.28;;;14.82;;
77938;SDS011;67136;47.546;21.630;2024-03-08T02:08:28;34.20;;;14.27;;
77938;SDS011;67136;47.546;21.630;2024-03-08T02:11:32;36.50;;;13.77;;
77938;SDS011;67136;47.546;21.630;2024-03-08T02:14:36;37.45;;;14.25;;
77938;SDS011;67136;47.546;21.630;2024-03-08T02:17:40;37.90;;;14.10;;
77938;SDS011;67136;47.546;21.630;2024-03-08T02:20:44;37.47;;;14.63;;
77938;SDS011;67136;47.546;21.630;2024-03-08T02:23:50;33.95;;;13.52;;
77938;SDS011;67136;47.546;21.630;2024-03-08T02:26:54;39.33;;;14.90;;
77938;SDS011;67136;47.546;21.630;2024-03-08T02:29:57;38.10;;;14.70;;
77938;SDS011;67136;47.546;21.630;2024-03-08T02:32:59;35.40;;;14.27;;
77938;SDS011;67136;47.546;21.630;2024-03-08T02:36:02;34.85;;;14.43;;
77938;SDS011;67136;47.546;21.630;2024-03-08T02:39:05;35.50;;;14.30;;
77938;SDS011;67136;47.546;21.630;2024-03-08T02:42:09;38.07;;;14.10;;
77938;SDS011;67136;47.546;21.630;2024-03-08T02:45:14;36.20;;;13.62;;
77938;SDS011;67136;47.546;21.630;2024-03-08T02:48:17;35.00;;;13.48;;
77938;SDS011;67136;47.546;21.630;2024-03-08T02:51:22;34.28;;;13.27;;
77938;SDS011;67136;47.546;21.630;2024-03-08T02:54:25;32.42;;;13.18;;
77938;SDS011;67136;47.546;21.630;2024-03-08T02:57:28;34.67;;;14.30;;
77938;SDS011;67136;47.546;21.630;2024-03-08T03:00:34;37.42;;;13.32;;
77938;SDS011;67136;47.546;21.630;2024-03-08T03:03:37;36.13;;;13.77;;
77938;SDS011;67136;47.546;21.630;2024-03-08T03:06:39;34.50;;;13.93;;
77938;SDS011;67136;47.546;21.630;2024-03-08T03:09:42;35.55;;;13.10;;
77938;SDS011;67136;47.546;21.630;2024-03-08T03:12:45;33.07;;;13.50;;
77938;SDS011;67136;47.546;21.630;2024-03-08T03:15:48;30.12;;;12.23;;
77938;SDS011;67136;47.546;21.630;2024-03-08T03:18:51;34.45;;;12.82;;
77938;SDS011;67136;47.546;21.630;2024-03-08T03:21:53;33.55;;;13.48;;
77938;SDS011;67136;47.546;21.630;2024-03-08T03:24:56;36.83;;;14.23;;
77938;SDS011;67136;47.546;21.630;2024-03-08T03:28:02;31.03;;;13.33;;
77938;SDS011;67136;47.546;21.630;2024-03-08T03:31:08;34.92;;;12.77;;
77938;SDS011;67136;47.546;21.630;2024-03-08T03:34:16;36.15;;;13.35;;
77938;SDS011;67136;47.546;21.630;2024-03-08T03:37:19;37.25;;;13.50;;
77938;SDS011;67136;47.546;21.630;2024-03-08T03:40:22;38.78;;;13.23;;
77938;SDS011;67136;47.546;21.630;2024-03-08T03:43:26;34.90;;;13.27;;
77938;SDS011;67136;47.546;21.630;2024-03-08T03:46:28;36.75;;;13.38;;
77938;SDS011;67136;47.546;21.630;2024-03-08T03:49:31;40.65;;;14.00;;
77938;SDS011;67136;47.546;21.630;2024-03-08T03:52:35;36.83;;;14.52;;
77938;SDS011;67136;47.546;21.630;2024-03-08T03:55:40;36.63;;;12.98;;
77938;SDS011;67136;47.546;21.630;2024-03-08T03:58:45;34.77;;;12.93;;
77938;SDS011;67136;47.546;21.630;2024-03-08T04:01:49;34.97;;;13.35;;
77938;SDS011;67136;47.546;21.630;2024-03-08T04:04:53;32.42;;;12.93;;
77938;SDS011;67136;47.546;21.630;2024-03-08T04:07:56;40.67;;;13.62;;
77938;SDS011;67136;47.546;21.630;2024-03-08T04:11:00;34.38;;;13.27;;
77938;SDS011;67136;47.546;21.630;2024-03-08T04:14:03;36.93;;;13.40;;
77938;SDS011;67136;47.546;21.630;2024-03-08T04:17:11;35.47;;;13.27;;
77938;SDS011;67136;47.546;21.630;2024-03-08T04:20:16;36.88;;;13.52;;
77938;SDS011;67136;47.546;21.630;2024-03-08T04:23:20;34.53;;;13.15;;
77938;SDS011;67136;47.546;21.630;2024-03-08T04:26:22;33.72;;;12.40;;
77938;SDS011;67136;47.546;21.630;2024-03-08T04:29:25;34.97;;;13.43;;
77938;SDS011;67136;47.546;21.630;2024-03-08T04:32:28;38.75;;;14.82;;
77938;SDS011;67136;47.546;21.630;2024-03-08T04:35:32;36.10;;;14.57;;
77938;SDS011;67136;47.546;21.630;2024-03-08T04:38:35;33.63;;;13.13;;
77938;SDS011;67136;47.546;21.630;2024-03-08T04:41:43;36.80;;;13.77;;
77938;SDS011;67136;47.546;21.630;2024-03-08T04:44:46;38.13;;;13.67;;
77938;SDS011;67136;47.546;21.630;2024-03-08T04:47:49;45.53;;;14.95;;
77938;SDS011;67136;47.546;21.630;2024-03-08T04:50:52;36.15;;;14.10;;
77938;SDS011;67136;47.546;21.630;2024-03-08T04:53:56;40.28;;;13.73;;
77938;SDS011;67136;47.546;21.630;2024-03-08T04:56:59;32.53;;;12.48;;
77938;SDS011;67136;47.546;21.630;2024-03-08T05:00:03;37.13;;;13.50;;
77938;SDS011;67136;47.546;21.630;2024-03-08T05:03:12;37.13;;;12.98;;
77938;SDS011;67136;47.546;21.630;2024-03-08T05:06:16;41.42;;;13.52;;
77938;SDS011;67136;47.546;21.630;2024-03-08T05:09:19;35.28;;;13.02;;
77938;SDS011;67136;47.546;21.630;2024-03-08T05:12:21;41.63;;;13.98;;
77938;SDS011;67136;47.546;21.630;2024-03-08T05:15:24;32.90;;;13.70;;
77938;SDS011;67136;47.546;21.630;2024-03-08T05:18:30;34.78;;;13.02;;
77938;SDS011;67136;47.546;21.630;2024-03-08T05:21:34;35.92;;;13.27;;
77938;SDS011;67136;47.546;21.630;2024-03-08T05:24:37;35.03;;;12.85;;
77938;SDS011;67136;47.546;21.630;2024-03-08T05:27:40;35.55;;;14.18;;
77938;SDS011;67136;47.546;21.630;2024-03-08T05:30:42;34.53;;;12.47;;
77938;SDS011;67136;47.546;21.630;2024-03-08T05:33:45;37.25;;;14.10;;
77938;SDS011;67136;47.546;21.630;2024-03-08T05:36:51;32.30;;;14.13;;
77938;SDS011;67136;47.546;21.630;2024-03-08T05:39:54;32.10;;;12.20;;
77938;SDS011;67136;47.546;21.630;2024-03-08T05:42:57;40.12;;;14.85;;
77938;SDS011;67136;47.546;21.630;2024-03-08T05:46:00;34.27;;;13.80;;
77938;SDS011;67136;47.546;21.630;2024-03-08T05:49:03;34.38;;;13.07;;
77938;SDS011;67136;47.546;21.630;2024-03-08T05:52:09;39.60;;;13.32;;
77938;SDS011;67136;47.546;21.630;2024-03-08T05:55:12;32.90;;;13.32;;
77938;SDS011;67136;47.546;21.630;2024-03-08T05:58:18;36.38;;;14.00;;
77938;SDS011;67136;47.546;21.630;2024-03-08T06:01:20;37.37;;;14.00;;
77938;SDS011;67136;47.546;21.630;2024-03-08T06:04:24;36.17;;;12.70;;
77938;SDS011;67136;47.546;21.630;2024-03-08T06:07:26;33.72;;;13.73;;
77938;SDS011;67136;47.546;21.630;2024-03-08T06:10:29;34.55;;;13.62;;
77938;SDS011;67136;47.546;21.630;2024-03-08T06:13:32;38.03;;;13.00;;
77938;SDS011;67136;47.546;21.630;2024-03-08T06:16:36;34.93;;;13.73;;
77938;SDS011;67136;47.546;21.630;2024-03-08T06:19:40;35.85;;;12.60;;
77938;SDS011;67136;47.546;21.630;2024-03-08T06:22:42;32.28;;;13.48;;
77938;SDS011;67136;47.546;21.630;2024-03-08T06:25:46;32.00;;;12.37;;
77938;SDS011;67136;47.546;21.630;2024-03-08T06:28:49;36.70;;;13.73;;
77938;SDS011;67136;47.546;21.630;2024-03-08T06:31:52;36.10;;;13.90;;
77938;SDS011;67136;47.546;21.630;2024-03-08T06:34:58;38.58;;;14.07;;
77938;SDS011;67136;47.546;21.630;2024-03-08T06:38:01;31.60;;;12.52;;
77938;SDS011;67136;47.546;21.630;2024-03-08T06:41:03;31.20;;;12.88;;
77938;SDS011;67136;47.546;21.630;2024-03-08T06:44:06;36.63;;;13.85;;
77938;SDS011;67136;47.546;21.630;2024-03-08T06:47:11;34.00;;;12.43;;
77938;SDS011;67136;47.546;21.630;2024-03-08T06:50:13;35.33;;;12.00;;
77938;SDS011;67136;47.546;21.630;2024-03-08T06:53:17;37.20;;;13.68;;
77938;SDS011;67136;47.546;21.630;2024-03-08T06:56:24;38.53;;;13.60;;
77938;SDS011;67136;47.546;21.630;2024-03-08T06:59:27;40.47;;;14.13;;
77938;SDS011;67136;47.546;21.630;2024-03-08T07:02:30;33.87;;;13.80;;
77938;SDS011;67136;47.546;21.630;2024-03-08T07:05:35;35.97;;;13.98;;
77938;SDS011;67136;47.546;21.630;2024-03-08T07:08:37;34.70;;;13.50;;
77938;SDS011;67136;47.546;21.630;2024-03-08T07:11:40;35.17;;;13.05;;
77938;SDS011;67136;47.546;21.630;2024-03-08T07:14:46;33.47;;;13.18;;
77938;SDS011;67136;47.546;21.630;2024-03-08T07:17:49;37.37;;;13.70;;
77938;SDS011;67136;47.546;21.630;2024-03-08T07:20:57;33.75;;;13.07;;
77938;SDS011;67136;47.546;21.630;2024-03-08T07:24:01;41.63;;;13.90;;
77938;SDS011;67136;47.546;21.630;2024-03-08T07:27:04;33.80;;;13.30;;
77938;SDS011;67136;47.546;21.630;2024-03-08T07:30:10;37.75;;;14.52;;
77938;SDS011;67136;47.546;21.630;2024-03-08T07:33:14;35.23;;;13.77;;
77938;SDS011;67136;47.546;21.630;2024-03-08T07:36:17;34.15;;;12.63;;
77938;SDS011;67136;47.546;21.630;2024-03-08T07:39:22;37.42;;;14.10;;
77938;SDS011;67136;47.546;21.630;2024-03-08T07:42:26;35.55;;;13.70;;
77938;SDS011;67136;47.546;21.630;2024-03-08T07:45:31;34.85;;;13.90;;
77938;SDS011;67136;47.546;21.630;2024-03-08T07:48:34;34.07;;;13.07;;
77938;SDS011;67136;47.546;21.630;2024-03-08T07:51:40;31.02;;;13.05;;
77938;SDS011;67136;47.546;21.630;2024-03-08T07:54:44;36.17;;;12.77;;
77938;SDS011;67136;47.546;21.630;2024-03-08T07:57:47;34.67;;;13.40;;
77938;SDS011;67136;47.546;21.630;2024-03-08T08:00:52;37.45;;;13.93;;
77938;SDS011;67136;47.546;21.630;2024-03-08T08:03:57;35.17;;;14.53;;
77938;SDS011;67136;47.546;21.630;2024-03-08T08:06:59;33.47;;;12.48;;
77938;SDS011;67136;47.546;21.630;2024-03-08T08:10:03;32.95;;;12.68;;
77938;SDS011;67136;47.546;21.630;2024-03-08T08:13:08;36.45;;;13.55;;
77938;SDS011;67136;47.546;21.630;2024-03-08T08:16:11;38.47;;;14.55;;
77938;SDS011;67136;47.546;21.630;2024-03-08T08:19:15;34.53;;;13.00;;
77938;SDS011;67136;47.546;21.630;2024-03-08T08:22:18;32.58;;;13.25;;
77938;SDS011;67136;47.546;21.630;2024-03-08T08:25:20;33.47;;;13.75;;
77938;SDS011;67136;47.546;21.630;2024-03-08T08:28:29;33.53;;;12.50;;
77938;SDS011;67136;47.546;21.630;2024-03-08T08:31:33;33.38;;;13.62;;
77938;SDS011;67136;47.546;21.630;2024-03-08T08:34:35;30.60;;;12.47;;
77938;SDS011;67136;47.546;21.630;2024-03-08T08:37:38;36.78;;;13.32;;
77938;SDS011;67136;47.546;21.630;2024-03-08T08:40:42;31.83;;;13.30;;
77938;SDS011;67136;47.546;21.630;2024-03-08T08:43:45;33.33;;;13.15;;
77938;SDS011;67136;47.546;21.630;2024-03-08T08:47:04;37.33;;;13.20;;
77938;SDS011;67136;47.546;21.630;2024-03-08T08:50:16;29.93;;;12.57;;
77938;SDS011;67136;47.546;21.630;2024-03-08T08:53:26;31.70;;;12.77;;
77938;SDS011;67136;47.546;21.630;2024-03-08T08:56:30;35.05;;;13.60;;
77938;SDS011;67136;47.546;21.630;2024-03-08T08:59:36;32.80;;;12.75;;
77938;SDS011;67136;47.546;21.630;2024-03-08T09:02:41;30.60;;;13.38;;
77938;SDS011;67136;47.546;21.630;2024-03-08T09:05:45;34.10;;;13.83;;
77938;SDS011;67136;47.546;21.630;2024-03-08T09:08:48;30.77;;;13.15;;
77938;SDS011;67136;47.546;21.630;2024-03-08T09:11:51;32.03;;;13.32;;
77938;SDS011;67136;47.546;21.630;2024-03-08T09:14:56;34.55;;;14.27;;
77938;SDS011;67136;47.546;21.630;2024-03-08T09:17:58;35.67;;;14.48;;
77938;SDS011;67136;47.546;21.630;2024-03-08T09:21:02;33.73;;;12.70;;
77938;SDS011;67136;47.546;21.630;2024-03-08T09:24:05;33.45;;;13.77;;
77938;SDS011;67136;47.546;21.630;2024-03-08T09:27:09;35.53;;;13.30;;
77938;SDS011;67136;47.546;21.630;2024-03-08T09:30:12;33.47;;;13.18;;
77938;SDS011;67136;47.546;21.630;2024-03-08T09:33:15;35.08;;;13.70;;
77938;SDS011;67136;47.546;21.630;2024-03-08T09:36:21;28.27;;;12.93;;
77938;SDS011;67136;47.546;21.630;2024-03-08T09:39:24;32.42;;;13.82;;
77938;SDS011;67136;47.546;21.630;2024-03-08T09:42:29;34.35;;;14.23;;
77938;SDS011;67136;47.546;21.630;2024-03-08T09:45:35;31.17;;;12.98;;
77938;SDS011;67136;47.546;21.630;2024-03-08T09:48:44;32.67;;;13.98;;
77938;SDS011;67136;47.546;21.630;2024-03-08T09:51:47;37.63;;;13.23;;
77938;SDS011;67136;47.546;21.630;2024-03-08T09:54:53;33.88;;;14.13;;
77938;SDS011;67136;47.546;21.630;2024-03-08T09:57:56;34.80;;;13.15;;
77938;SDS011;67136;47.546;21.630;2024-03-08T10:01:23;31.00;;;13.15;;
77938;SDS011;67136;47.546;21.630;2024-03-08T10:04:28;39.08;;;14.25;;
77938;SDS011;67136;47.546;21.630;2024-03-08T10:07:33;34.80;;;15.20;;
77938;SDS011;67136;47.546;21.630;2024-03-08T10:10:37;33.20;;;14.55;;
77938;SDS011;67136;47.546;21.630;2024-03-08T10:13:39;29.27;;;13.90;;
77938;SDS011;67136;47.546;21.630;2024-03-08T10:16:42;33.97;;;15.13;;
77938;SDS011;67136;47.546;21.630;2024-03-08T10:19:49;30.80;;;13.43;;
77938;SDS011;67136;47.546;21.630;2024-03-08T10:22:54;36.60;;;15.43;;
77938;SDS011;67136;47.546;21.630;2024-03-08T10:26:17;36.10;;;14.77;;
77938;SDS011;67136;47.546;21.630;2024-03-08T10:29:22;34.08;;;14.65;;
77938;SDS011;67136;47.546;21.630;2024-03-08T10:32:25;36.22;;;14.80;;
77938;SDS011;67136;47.546;21.630;2024-03-08T10:35:28;39.20;;;15.82;;
77938;SDS011;67136;47.546;21.630;2024-03-08T10:38:31;33.87;;;15.47;;
77938;SDS011;67136;47.546;21.630;2024-03-08T10:41:37;31.75;;;13.95;;
77938;SDS011;67136;47.546;21.630;2024-03-08T10:45:00;31.40;;;14.30;;
77938;SDS011;67136;47.546;21.630;2024-03-08T10:48:15;32.38;;;13.57;;
77938;SDS011;67136;47.546;21.630;2024-03-08T10:51:32;33.35;;;13.57;;
77938;SDS011;67136;47.546;21.630;2024-03-08T10:54:36;30.07;;;13.23;;
77938;SDS011;67136;47.546;21.630;2024-03-08T10:57:46;32.80;;;14.00;;
77938;SDS011;67136;47.546;21.630;2024-03-08T11:00:50;31.48;;;13.62;;
77938;SDS011;67136;47.546;21.630;2024-03-08T11:03:52;31.87;;;13.55;;
77938;SDS011;67136;47.546;21.630;2024-03-08T11:07:00;35.97;;;14.15;;
77938;SDS011;67136;47.546;21.630;2024-03-08T11:10:06;33.17;;;14.53;;
77938;SDS011;67136;47.546;21.630;2024-03-08T11:16:50;34.70;;;13.32;;
77938;SDS011;67136;47.546;21.630;2024-03-08T11:19:55;30.23;;;12.40;;
77938;SDS011;67136;47.546;21.630;2024-03-08T11:23:03;34.83;;;13.85;;
77938;SDS011;67136;47.546;21.630;2024-03-08T11:26:20;30.80;;;13.47;;
77938;SDS011;67136;47.546;21.630;2024-03-08T11:32:33;31.75;;;13.50;;
77938;SDS011;67136;47.546;21.630;2024-03-08T11:35:38;30.00;;;13.38;;
77938;SDS011;67136;47.546;21.630;2024-03-08T11:38:45;27.70;;;12.65;;
77938;SDS011;67136;47.546;21.630;2024-03-08T11:41:54;28.73;;;12.90;;
77938;SDS011;67136;47.546;21.630;2024-03-08T11:44:57;27.67;;;12.30;;
77938;SDS011;67136;47.546;21.630;2024-03-08T11:48:00;27.42;;;13.43;;
77938;SDS011;67136;47.546;21.630;2024-03-08T11:51:04;27.85;;;11.98;;
77938;SDS011;67136;47.546;21.630;2024-03-08T11:54:11;27.75;;;12.73;;
77938;SDS011;67136;47.546;21.630;2024-03-08T11:57:19;28.53;;;12.80;;
77938;SDS011;67136;47.546;21.630;2024-03-08T12:00:22;26.52;;;12.93;;
77938;SDS011;67136;47.546;21.630;2024-03-08T12:03:28;28.62;;;12.85;;
77938;SDS011;67136;47.546;21.630;2024-03-08T12:06:37;30.40;;;12.55;;
77938;SDS011;67136;47.546;21.630;2024-03-08T12:09:42;30.02;;;13.90;;
77938;SDS011;67136;47.546;21.630;2024-03-08T12:12:49;30.03;;;12.77;;
77938;SDS011;67136;47.546;21.630;2024-03-08T12:15:53;31.90;;;13.62;;
77938;SDS011;67136;47.546;21.630;2024-03-08T12:18:57;32.10;;;14.48;;
77938;SDS011;67136;47.546;21.630;2024-03-08T12:22:07;30.23;;;12.98;;
77938;SDS011;67136;47.546;21.630;2024-03-08T12:25:12;30.95;;;14.27;;
77938;SDS011;67136;47.546;21.630;2024-03-08T12:28:15;33.67;;;13.63;;
77938;SDS011;67136;47.546;21.630;2024-03-08T12:31:18;29.98;;;12.60;;
77938;SDS011;67136;47.546;21.630;2024-03-08T12:34:25;31.75;;;14.27;;
77938;SDS011;67136;47.546;21.630;2024-03-08T12:37:29;32.53;;;13.88;;
77938;SDS011;67136;47.546;21.630;2024-03-08T12:40:33;33.90;;;15.00;;
77938;SDS011;67136;47.546;21.630;2024-03-08T12:43:37;34.83;;;15.03;;
77938;SDS011;67136;47.546;21.630;2024-03-08T12:46:39;36.13;;;14.20;;
77938;SDS011;67136;47.546;21.630;2024-03-08T12:49:42;33.53;;;13.38;;
77938;SDS011;67136;47.546;21.630;2024-03-08T12:52:45;28.60;;;13.62;;
77938;SDS011;67136;47.546;21.630;2024-03-08T12:55:51;29.60;;;13.85;;
77938;SDS011;67136;47.546;21.630;2024-03-08T12:58:55;31.30;;;14.07;;
77938;SDS011;67136;47.546;21.630;2024-03-08T13:01:58;32.65;;;13.52;;
77938;SDS011;67136;47.546;21.630;2024-03-08T13:05:02;35.60;;;14.48;;
77938;SDS011;67136;47.546;21.630;2024-03-08T13:08:07;35.35;;;15.05;;
77938;SDS011;67136;47.546;21.630;2024-03-08T13:11:15;34.60;;;14.98;;
77938;SDS011;67136;47.546;21.630;2024-03-08T13:14:19;33.30;;;14.60;;
77938;SDS011;67136;47.546;21.630;2024-03-08T13:17:21;35.53;;;14.95;;
77938;SDS011;67136;47.546;21.630;2024-03-08T13:20:24;37.97;;;15.23;;
77938;SDS011;67136;47.546;21.630;2024-03-08T13:23:41;30.08;;;13.65;;
77938;SDS011;67136;47.546;21.630;2024-03-08T13:26:47;32.08;;;14.57;;
77938;SDS011;67136;47.546;21.630;2024-03-08T13:29:50;32.23;;;13.77;;
77938;SDS011;67136;47.546;21.630;2024-03-08T13:32:52;33.05;;;15.70;;
77938;SDS011;67136;47.546;21.630;2024-03-08T13:35:56;36.35;;;14.70;;
77938;SDS011;67136;47.546;21.630;2024-03-08T13:39:06;33.80;;;14.07;;
77938;SDS011;67136;47.546;21.630;2024-03-08T13:42:20;29.12;;;13.95;;
77938;SDS011;67136;47.546;21.630;2024-03-08T13:45:25;36.07;;;14.17;;
77938;SDS011;67136;47.546;21.630;2024-03-08T13:48:27;33.00;;;14.45;;
77938;SDS011;67136;47.546;21.630;2024-03-08T13:51:30;29.65;;;13.35;;
77938;SDS011;67136;47.546;21.630;2024-03-08T13:54:36;31.90;;;13.25;;
77938;SDS011;67136;47.546;21.630;2024-03-08T13:57:40;34.80;;;13.68;;
77938;SDS011;67136;47.546;21.630;2024-03-08T14:00:44;33.30;;;13.83;;
77938;SDS011;67136;47.546;21.630;2024-03-08T14:03:49;29.27;;;13.05;;
77938;SDS011;67136;47.546;21.630;2024-03-08T14:06:51;33.22;;;12.88;;
77938;SDS011;67136;47.546;21.630;2024-03-08T14:10:02;30.88;;;14.15;;
77938;SDS011;67136;47.546;21.630;2024-03-08T14:13:05;31.83;;;13.32;;
77938;SDS011;67136;47.546;21.630;2024-03-08T14:16:09;33.97;;;13.53;;
77938;SDS011;67136;47.546;21.630;2024-03-08T14:19:12;31.90;;;13.30;;
77938;SDS011;67136;47.546;21.630;2024-03-08T14:22:16;36.05;;;14.15;;
77938;SDS011;67136;47.546;21.630;2024-03-08T14:25:18;32.92;;;13.35;;
77938;SDS011;67136;47.546;21.630;2024-03-08T14:28:22;28.75;;;12.75;;
77938;SDS011;67136;47.546;21.630;2024-03-08T14:31:25;30.37;;;12.67;;
77938;SDS011;67136;47.546;21.630;2024-03-08T14:34:28;28.75;;;12.10;;
77938;SDS011;67136;47.546;21.630;2024-03-08T14:37:32;28.95;;;12.23;;
77938;SDS011;67136;47.546;21.630;2024-03-08T14:40:35;24.10;;;10.88;;
77938;SDS011;67136;47.546;21.630;2024-03-08T14:47:40;22.60;;;10.57;;
77938;SDS011;67136;47.546;21.630;2024-03-08T14:50:43;27.00;;;11.68;;
77938;SDS011;67136;47.546;21.630;2024-03-08T14:53:47;26.40;;;11.50;;
77938;SDS011;67136;47.546;21.630;2024-03-08T14:56:49;28.95;;;11.50;;
77938;SDS011;67136;47.546;21.630;2024-03-08T14:59:57;29.63;;;11.43;;
77938;SDS011;67136;47.546;21.630;2024-03-08T15:03:04;26.23;;;10.90;;
77938;SDS011;67136;47.546;21.630;2024-03-08T15:06:09;27.02;;;11.77;;
77938;SDS011;67136;47.546;21.630;2024-03-08T15:09:12;27.25;;;10.40;;
77938;SDS011;67136;47.546;21.630;2024-03-08T15:12:19;26.08;;;10.90;;
77938;SDS011;67136;47.546;21.630;2024-03-08T15:15:22;27.73;;;11.55;;
77938;SDS011;67136;47.546;21.630;2024-03-08T15:18:27;23.47;;;10.53;;
77938;SDS011;67136;47.546;21.630;2024-03-08T15:21:37;27.98;;;11.57;;
77938;SDS011;67136;47.546;21.630;2024-03-08T15:24:40;25.55;;;11.65;;
77938;SDS011;67136;47.546;21.630;2024-03-08T15:27:45;31.85;;;12.77;;
77938;SDS011;67136;47.546;21.630;2024-03-08T15:30:51;26.50;;;11.88;;
77938;SDS011;67136;47.546;21.630;2024-03-08T15:33:56;30.43;;;11.17;;
77938;SDS011;67136;47.546;21.630;2024-03-08T15:37:09;26.52;;;11.45;;
77938;SDS011;67136;47.546;21.630;2024-03-08T15:40:17;31.33;;;11.68;;
77938;SDS011;67136;47.546;21.630;2024-03-08T15:43:23;28.77;;;10.40;;
77938;SDS011;67136;47.546;21.630;2024-03-08T15:46:27;23.65;;;10.63;;
77938;SDS011;67136;47.546;21.630;2024-03-08T15:49:30;24.10;;;11.00;;
77938;SDS011;67136;47.546;21.630;2024-03-08T15:52:33;25.83;;;11.50;;
77938;SDS011;67136;47.546;21.630;2024-03-08T15:55:36;23.55;;;10.90;;
77938;SDS011;67136;47.546;21.630;2024-03-08T15:58:38;29.70;;;11.25;;
77938;SDS011;67136;47.546;21.630;2024-03-08T16:01:42;27.02;;;11.95;;
77938;SDS011;67136;47.546;21.630;2024-03-08T16:04:52;25.73;;;10.63;;
77938;SDS011;67136;47.546;21.630;2024-03-08T16:07:55;22.25;;;9.65;;
77938;SDS011;67136;47.546;21.630;2024-03-08T16:10:58;24.95;;;9.90;;
77938;SDS011;67136;47.546;21.630;2024-03-08T16:14:01;26.83;;;10.48;;
77938;SDS011;67136;47.546;21.630;2024-03-08T16:17:05;26.37;;;10.48;;
77938;SDS011;67136;47.546;21.630;2024-03-08T16:20:09;28.83;;;10.77;;
77938;SDS011;67136;47.546;21.630;2024-03-08T16:23:14;25.85;;;10.68;;
77938;SDS011;67136;47.546;21.630;2024-03-08T16:26:18;23.65;;;10.95;;
77938;SDS011;67136;47.546;21.630;2024-03-08T16:29:26;25.52;;;11.18;;
77938;SDS011;67136;47.546;21.630;2024-03-08T16:32:29;22.40;;;10.80;;
77938;SDS011;67136;47.546;21.630;2024-03-08T16:35:31;23.20;;;10.27;;
77938;SDS011;67136;47.546;21.630;2024-03-08T16:38:34;23.73;;;11.05;;
77938;SDS011;67136;47.546;21.630;2024-03-08T16:41:39;25.67;;;10.55;;
77938;SDS011;67136;47.546;21.630;2024-03-08T16:44:42;26.20;;;10.55;;
77938;SDS011;67136;47.546;21.630;2024-03-08T16:47:46;23.50;;;10.23;;
77938;SDS011;67136;47.546;21.630;2024-03-08T16:50:50;27.10;;;11.30;;
77938;SDS011;67136;47.546;21.630;2024-03-08T16:53:56;24.83;;;11.12;;
77938;SDS011;67136;47.546;21.630;2024-03-08T16:56:58;24.15;;;10.10;;
77938;SDS011;67136;47.546;21.630;2024-03-08T17:00:01;25.62;;;11.02;;
77938;SDS011;67136;47.546;21.630;2024-03-08T17:03:12;21.92;;;10.93;;
77938;SDS011;67136;47.546;21.630;2024-03-08T17:06:15;27.47;;;10.40;;
77938;SDS011;67136;47.546;21.630;2024-03-08T17:09:18;30.30;;;11.75;;
77938;SDS011;67136;47.546;21.630;2024-03-08T17:12:21;27.23;;;10.80;;
77938;SDS011;67136;47.546;21.630;2024-03-08T17:15:26;26.75;;;11.70;;
77938;SDS011;67136;47.546;21.630;2024-03-08T17:18:33;26.12;;;11.20;;
77938;SDS011;67136;47.546;21.630;2024-03-08T17:21:36;27.30;;;10.77;;
77938;SDS011;67136;47.546;21.630;2024-03-08T17:24:39;28.17;;;11.30;;
77938;SDS011;67136;47.546;21.630;2024-03-08T17:27:42;26.52;;;10.65;;
77938;SDS011;67136;47.546;21.630;2024-03-08T17:30:47;28.85;;;11.85;;
77938;SDS011;67136;47.546;21.630;2024-03-08T17:33:49;28.20;;;11.32;;
77938;SDS011;67136;47.546;21.630;2024-03-08T17:36:54;26.07;;;11.63;;
77938;SDS011;67136;47.546;21.630;2024-03-08T17:40:00;27.37;;;11.25;;
77938;SDS011;67136;47.546;21.630;2024-03-08T17:43:08;29.23;;;11.82;;
77938;SDS011;67136;47.546;21.630;2024-03-08T17:46:15;34.28;;;12.77;;
77938;SDS011;67136;47.546;21.630;2024-03-08T17:49:18;33.55;;;13.35;;
77938;SDS011;67136;47.546;21.630;2024-03-08T17:52:21;34.80;;;13.13;;
77938;SDS011;67136;47.546;21.630;2024-03-08T17:55:24;33.70;;;13.77;;